Terminal Aerodrome Forecast
Issued by NWS Duluth, MN

Home | Current Version | Previous Version | Text Only | Print | Product List | Glossary On
Versions: 1 2 3 4 5 6 7 8 9 10 11 12 13 14 15 16 17 18 19 20 21
000
FTUS43 KDLH 230402 AAC
TAFINL
TAF AMD
KINL 230402Z 2304/2324 34010KT P6SM -SHRA SCT012 OVC025
     FM230700 32010KT P6SM VCSH OVC035
     FM230900 35005KT P6SM OVC050=

USA.gov is the U.S. government's official web portal to all federal, state and local government web resources and services.